Terminal Aerodrome Forecast
Issued by NWS

Home | Current Version | Previous Version | Text Only | Print | Product List | Glossary On
Versions: 1 2 3 4 5 6 7 8 9 10 11 12 13 14
000
FTUS41 KBOX 302334 AAA
TAFHYA
TAF AMD
KHYA 302334Z 0100/0124 13007KT P6SM OVC040
     FM010800 15010G18KT P6SM -DZ VCSH OVC015
     FM011100 15009KT 5SM -DZ BR VCSH OVC008
     FM011200 15008KT 3SM -DZ BR VCSH OVC001 WS020/19040KT
     FM011400 17007KT 2SM BR OVC003
     FM011800 21010KT 3SM BR BKN010
     FM012100 21011G20KT P6SM BKN010
     FM012200 21011G19KT P6SM BKN010 WS020/24040KT=

USA.gov is the U.S. government's official web portal to all federal, state and local government web resources and services.